El Portal, Florida
Current Conditions -  °F | °C
As of 10:53 AM on Thursday 30 Oct 2014 (Local Time) from KMIA Reporting Station
Scattered Clouds Scattered Clouds  
Wind Chill: 81°   Ceiling: Unl
Heat Index: 83°   Visibility: 10mi
Dew Point: 66°   Wind: 3mph
Humidity: 60%   Direction: 240°WSW
Pressure: 29.98"   Gusts: NA
Location:  25.852°N, 80.2071°W
Report Text: KMIA 301453Z 24003KT 10SM SCT032 SCT080 27/19 A2998 RMK AO2 SLP153 TCU DSNT NE-E T02720189 50006
Loading
Personal Weather Stations






























Interactive Weather Map
Tropical Storm Tracking
New forecast layout! Learn more

10-Day Weather Forecast

Advertisements
Track Severe Weather on mobile